nws-alerts: Checking more than four warning/county codes can delay the loading of your pages. You should use a cron job to get the data.
EllijayWeather Station Historical Data
Daily Summary for November 16, 2018 Units:  English    Metric   Both
Daily Weekly Monthly Yearly Custom
  High: Low: Average:
Temperature: 50.5 °F 29.1 °F 37.5 °F
Dew Point: 41.9 °F 18.5 °F 27.9 °F
Humidity: 78% 60% 68%
Wind Speed: 4.9mph 0.0mph 0.1mph
Wind Gust: 6.0mph - -
Wind- - WNW
Pressure: 30.28 in 30.16 in -
Precipitation: 0.00 in    
Historical Graphs
 
 
Tabular Data for November 16, 2018
Time Temperature Dew Point Pressure Wind Wind Speed Wind Gust Humidity Rainfall Rate (Hourly) solar
00:04 31.1 °F 22.8 °F 30.17 in NW 2.0 mph 3.0 mph 71% 0.00 in meteobridge W/m2
00:09 31.3 °F 22.6 °F 30.17 in Calm   4.0 mph 70% 0.00 in meteobridge W/m2
00:14 31.1 °F 22.5 °F 30.16 in Calm   3.0 mph 70% 0.00 in meteobridge W/m2
00:19 31.1 °F 22.5 °F 30.16 in WNW 0.9 mph 4.0 mph 70% 0.00 in meteobridge W/m2
00:24 31.1 °F 22.5 °F 30.17 in NW 0.9 mph 4.0 mph 70% 0.00 in meteobridge W/m2
00:29 31.1 °F 22.5 °F 30.18 in Calm   1.0 mph 70% 0.00 in meteobridge W/m2
00:34 31.1 °F 22.5 °F 30.17 in Calm     70% 0.00 in meteobridge W/m2
00:39 31.1 °F 22.1 °F 30.17 in Calm   2.0 mph 69% 0.00 in meteobridge W/m2
00:44 31.1 °F 22.1 °F 30.17 in Calm   6.0 mph 69% 0.00 in meteobridge W/m2
00:49 31.1 °F 22.5 °F 30.17 in Calm   4.0 mph 70% 0.00 in meteobridge W/m2
00:54 30.9 °F 22.3 °F 30.17 in Calm   1.0 mph 70% 0.00 in meteobridge W/m2
00:59 30.9 °F 22.3 °F 30.17 in Calm     70% 0.00 in meteobridge W/m2
01:04 30.9 °F 21.9 °F 30.17 in Calm   2.0 mph 69% 0.00 in meteobridge W/m2
01:09 30.9 °F 21.9 °F 30.18 in Calm     69% 0.00 in meteobridge W/m2
01:14 30.9 °F 21.6 °F 30.18 in Calm     68% 0.00 in meteobridge W/m2
01:19 31.1 °F 21.7 °F 30.18 in Calm     68% 0.00 in meteobridge W/m2
01:24 31.1 °F 21.7 °F 30.18 in Calm     68% 0.00 in meteobridge W/m2
01:29 31.3 °F 21.6 °F 30.18 in Calm     67% 0.00 in meteobridge W/m2
01:34 31.3 °F 21.9 °F 30.18 in Calm     68% 0.00 in meteobridge W/m2
01:39 31.1 °F 21.7 °F 30.18 in Calm     68% 0.00 in meteobridge W/m2
01:44 31.1 °F 21.7 °F 30.18 in Calm   2.0 mph 68% 0.00 in meteobridge W/m2
01:49 31.1 °F 22.1 °F 30.18 in Calm     69% 0.00 in meteobridge W/m2
01:54 30.9 °F 21.9 °F 30.18 in NW 0.9 mph 1.0 mph 69% 0.00 in meteobridge W/m2
01:59 31.1 °F 21.7 °F 30.18 in NW 0.9 mph 1.0 mph 68% 0.00 in meteobridge W/m2
02:04 31.1 °F 21.7 °F 30.19 in Calm   2.0 mph 68% 0.00 in meteobridge W/m2
02:09 31.1 °F 22.1 °F 30.19 in Calm     69% 0.00 in meteobridge W/m2
02:14 31.1 °F 21.7 °F 30.19 in NW 2.0 mph 2.0 mph 68% 0.00 in meteobridge W/m2
02:19 31.1 °F 22.1 °F 30.19 in Calm   1.0 mph 69% 0.00 in meteobridge W/m2
02:24 31.3 °F 21.9 °F 30.19 in Calm   2.0 mph 68% 0.00 in meteobridge W/m2
02:29 31.3 °F 21.9 °F 30.19 in Calm   1.0 mph 68% 0.00 in meteobridge W/m2
02:34 31.3 °F 21.9 °F 30.19 in NW 4.0 mph 4.0 mph 68% 0.00 in meteobridge W/m2
02:39 31.3 °F 21.9 °F 30.19 in Calm   4.0 mph 68% 0.00 in meteobridge W/m2
02:44 31.3 °F 21.9 °F 30.19 in Calm     68% 0.00 in meteobridge W/m2
02:49 31.3 °F 21.6 °F 30.19 in Calm   2.0 mph 67% 0.00 in meteobridge W/m2
02:54 31.3 °F 21.6 °F 30.19 in Calm     67% 0.00 in meteobridge W/m2
02:59 31.3 °F 21.6 °F 30.19 in Calm     67% 0.00 in meteobridge W/m2
03:03 31.3 °F 21.6 °F 30.19 in Calm   3.0 mph 67% 0.00 in meteobridge W/m2
03:09 31.3 °F 21.6 °F 30.20 in Calm   2.0 mph 67% 0.00 in meteobridge W/m2
03:14 31.3 °F 21.6 °F 30.20 in Calm     67% 0.00 in meteobridge W/m2
03:19 31.3 °F 21.6 °F 30.20 in Calm   3.0 mph 67% 0.00 in meteobridge W/m2
03:24 31.3 °F 21.6 °F 30.20 in Calm   2.0 mph 67% 0.00 in meteobridge W/m2
03:29 31.3 °F 21.6 °F 30.20 in Calm     67% 0.00 in meteobridge W/m2
03:34 31.3 °F 21.6 °F 30.20 in Calm   5.0 mph 67% 0.00 in meteobridge W/m2
03:39 31.1 °F 21.7 °F 30.20 in Calm   1.0 mph 68% 0.00 in meteobridge W/m2
03:44 31.1 °F 21.4 °F 30.20 in Calm     67% 0.00 in meteobridge W/m2
03:49 31.1 °F 21.7 °F 30.20 in Calm   2.0 mph 68% 0.00 in meteobridge W/m2
03:54 30.9 °F 21.6 °F 30.20 in NW 4.9 mph 5.0 mph 68% 0.00 in meteobridge W/m2
03:59 30.9 °F 21.6 °F 30.20 in Calm     68% 0.00 in meteobridge W/m2
04:04 30.9 °F 21.6 °F 30.21 in Calm   5.0 mph 68% 0.00 in meteobridge W/m2
04:09 30.9 °F 21.6 °F 30.21 in Calm     68% 0.00 in meteobridge W/m2
04:14 30.9 °F 21.6 °F 30.21 in Calm   1.0 mph 68% 0.00 in meteobridge W/m2
04:19 30.9 °F 21.6 °F 30.21 in Calm     68% 0.00 in meteobridge W/m2
04:24 30.9 °F 21.9 °F 30.21 in Calm     69% 0.00 in meteobridge W/m2
04:29 30.9 °F 21.9 °F 30.21 in Calm   2.0 mph 69% 0.00 in meteobridge W/m2
04:34 30.9 °F 21.9 °F 30.21 in Calm   2.0 mph 69% 0.00 in meteobridge W/m2
04:39 30.9 °F 21.9 °F 30.21 in Calm     69% 0.00 in meteobridge W/m2
04:44 30.9 °F 21.9 °F 30.20 in Calm   3.0 mph 69% 0.00 in meteobridge W/m2
04:49 30.9 °F 21.9 °F 30.20 in Calm   3.0 mph 69% 0.00 in meteobridge W/m2
04:54 30.7 °F 22.1 °F 30.21 in Calm     70% 0.00 in meteobridge W/m2
04:59 30.7 °F 21.7 °F 30.21 in Calm   6.0 mph 69% 0.00 in meteobridge W/m2
05:04 30.7 °F 22.1 °F 30.20 in Calm     70% 0.00 in meteobridge W/m2
05:09 30.7 °F 22.1 °F 30.21 in Calm   2.0 mph 70% 0.00 in meteobridge W/m2
05:14 30.6 °F 21.9 °F 30.21 in Calm     70% 0.00 in meteobridge W/m2
05:19 30.6 °F 21.9 °F 30.22 in Calm     70% 0.00 in meteobridge W/m2
05:24 30.6 °F 21.9 °F 30.22 in Calm     70% 0.00 in meteobridge W/m2
05:29 30.4 °F 21.4 °F 30.22 in Calm     69% 0.00 in meteobridge W/m2
05:34 30.4 °F 21.4 °F 30.22 in Calm     69% 0.00 in meteobridge W/m2
05:39 30.2 °F 21.2 °F 30.22 in Calm     69% 0.00 in meteobridge W/m2
05:44 30.2 °F 21.2 °F 30.22 in Calm     69% 0.00 in meteobridge W/m2
05:49 30.0 °F 21.0 °F 30.22 in Calm     69% 0.00 in meteobridge W/m2
05:54 30.0 °F 20.7 °F 30.22 in Calm   1.0 mph 68% 0.00 in meteobridge W/m2
05:59 30.0 °F 20.7 °F 30.22 in Calm     68% 0.00 in meteobridge W/m2
06:04 29.8 °F 20.7 °F 30.22 in Calm     68% 0.00 in meteobridge W/m2
06:09 29.8 °F 20.3 °F 30.22 in Calm   2.0 mph 67% 0.00 in meteobridge W/m2
06:14 29.8 °F 20.3 °F 30.22 in Calm   2.0 mph 67% 0.00 in meteobridge W/m2
06:19 29.8 °F 20.3 °F 30.22 in Calm     67% 0.00 in meteobridge W/m2
06:24 29.8 °F 20.3 °F 30.23 in Calm     67% 0.00 in meteobridge W/m2
06:29 29.7 °F 20.1 °F 30.23 in Calm   1.0 mph 67% 0.00 in meteobridge W/m2
06:34 29.7 °F 20.1 °F 30.23 in Calm   4.0 mph 67% 0.00 in meteobridge W/m2
06:39 29.7 °F 20.1 °F 30.24 in Calm     67% 0.00 in meteobridge W/m2
06:44 29.7 °F 20.1 °F 30.24 in Calm     67% 0.00 in meteobridge W/m2
06:49 29.7 °F 20.1 °F 30.24 in Calm     67% 0.00 in meteobridge W/m2
06:54 29.5 °F 19.9 °F 30.24 in Calm     67% 0.00 in meteobridge W/m2
06:59 29.5 °F 19.9 °F 30.24 in Calm     67% 0.00 in meteobridge W/m2
07:04 29.5 °F 19.9 °F 30.24 in Calm     67% 0.00 in meteobridge W/m2
07:09 29.5 °F 19.6 °F 30.24 in Calm     66% 0.00 in meteobridge W/m2
07:14 29.5 °F 19.6 °F 30.24 in Calm     66% 0.00 in meteobridge W/m2
07:19 29.3 °F 19.4 °F 30.25 in Calm     66% 0.00 in meteobridge W/m2
07:24 29.3 °F 19.4 °F 30.25 in Calm     66% 0.00 in meteobridge W/m2
07:29 29.1 °F 19.2 °F 30.25 in Calm     66% 0.00 in meteobridge W/m2
07:34 29.1 °F 19.2 °F 30.25 in Calm     66% 0.00 in meteobridge W/m2
07:39 29.1 °F 18.9 °F 30.25 in Calm     65% 0.00 in meteobridge W/m2
07:44 29.1 °F 18.9 °F 30.25 in Calm     65% 0.00 in meteobridge W/m2
07:49 29.1 °F 18.9 °F 30.26 in Calm     65% 0.00 in meteobridge W/m2
07:54 29.1 °F 18.9 °F 30.26 in Calm     65% 0.00 in meteobridge W/m2
07:59 29.1 °F 18.5 °F 30.26 in Calm     64% 0.00 in meteobridge W/m2
08:04 29.5 °F 18.9 °F 30.27 in Calm     64% 0.00 in meteobridge W/m2
08:09 29.5 °F 18.9 °F 30.27 in Calm     64% 0.00 in meteobridge W/m2
08:14 29.7 °F 18.7 °F 30.27 in Calm     63% 0.00 in meteobridge W/m2
08:19 29.8 °F 18.9 °F 30.27 in Calm     63% 0.00 in meteobridge W/m2
08:24 30.0 °F 18.5 °F 30.27 in Calm     62% 0.00 in meteobridge W/m2
08:29 30.2 °F 18.7 °F 30.27 in Calm     62% 0.00 in meteobridge W/m2
08:34 30.4 °F 18.9 °F 30.27 in Calm     62% 0.00 in meteobridge W/m2
08:39 30.7 °F 19.2 °F 30.28 in Calm     62% 0.00 in meteobridge W/m2
08:44 30.9 °F 19.4 °F 30.28 in Calm     62% 0.00 in meteobridge W/m2
08:49 31.3 °F 19.8 °F 30.28 in Calm     62% 0.00 in meteobridge W/m2
08:53 31.5 °F 20.7 °F 30.28 in Calm     64% 0.00 in meteobridge W/m2
08:59 31.8 °F 21.4 °F 30.28 in Calm   2.0 mph 65% 0.00 in meteobridge W/m2
09:04 32.4 °F 22.6 °F 30.28 in Calm     67% 0.00 in meteobridge W/m2
09:09 32.7 °F 23.7 °F 30.27 in Calm   3.0 mph 69% 0.00 in meteobridge W/m2
09:14 33.3 °F 24.8 °F 30.27 in NNW 0.9 mph 1.0 mph 71% 0.00 in meteobridge W/m2
09:19 33.6 °F 26.2 °F 30.28 in Calm   3.0 mph 74% 0.00 in meteobridge W/m2
09:24 34.2 °F 27.1 °F 30.27 in Calm   3.0 mph 75% 0.00 in meteobridge W/m2
09:29 34.7 °F 27.9 °F 30.27 in Calm   1.0 mph 76% 0.00 in meteobridge W/m2
09:34 35.4 °F 28.9 °F 30.27 in Calm     77% 0.00 in meteobridge W/m2
09:39 36.0 °F 29.8 °F 30.27 in ENE 0.9 mph 4.0 mph 78% 0.00 in meteobridge W/m2
09:44 36.3 °F 30.2 °F 30.28 in Calm     78% 0.00 in meteobridge W/m2
09:49 36.7 °F 30.6 °F 30.27 in Calm     78% 0.00 in meteobridge W/m2
09:54 36.9 °F 30.6 °F 30.27 in Calm   2.0 mph 78% 0.00 in meteobridge W/m2
09:59 37.0 °F 30.6 °F 30.27 in Calm   4.0 mph 77% 0.00 in meteobridge W/m2
10:04 37.4 °F 30.6 °F 30.27 in Calm   3.0 mph 76% 0.00 in meteobridge W/m2
10:09 37.8 °F 30.9 °F 30.27 in Calm   1.0 mph 76% 0.00 in meteobridge W/m2
10:14 38.1 °F 30.9 °F 30.27 in Calm   3.0 mph 75% 0.00 in meteobridge W/m2
10:19 38.5 °F 31.3 °F 30.27 in Calm   2.0 mph 75% 0.00 in meteobridge W/m2
10:24 38.7 °F 31.1 °F 30.27 in Calm   2.0 mph 74% 0.00 in meteobridge W/m2
10:29 39.0 °F 31.5 °F 30.27 in Calm   1.0 mph 74% 0.00 in meteobridge W/m2
10:34 39.4 °F 31.5 °F 30.27 in Calm   4.0 mph 73% 0.00 in meteobridge W/m2
10:39 39.7 °F 31.8 °F 30.27 in Calm   1.0 mph 73% 0.00 in meteobridge W/m2
10:44 40.1 °F 32.2 °F 30.27 in Calm   4.0 mph 73% 0.00 in meteobridge W/m2
10:49 40.5 °F 32.2 °F 30.27 in Calm     72% 0.00 in meteobridge W/m2
10:54 40.8 °F 32.5 °F 30.27 in NNW 2.0 mph 3.0 mph 72% 0.00 in meteobridge W/m2
10:59 41.2 °F 32.2 °F 30.27 in Calm   1.0 mph 70% 0.00 in meteobridge W/m2
11:04 41.4 °F 32.0 °F 30.27 in Calm   1.0 mph 69% 0.00 in meteobridge W/m2
11:09 41.7 °F 32.7 °F 30.27 in Calm     70% 0.00 in meteobridge W/m2
11:14 42.1 °F 32.4 °F 30.27 in Calm   1.0 mph 68% 0.00 in meteobridge W/m2
11:19 42.4 °F 32.7 °F 30.26 in Calm   1.0 mph 68% 0.00 in meteobridge W/m2
11:24 42.8 °F 32.9 °F 30.26 in Calm     68% 0.00 in meteobridge W/m2
11:29 43.0 °F 33.1 °F 30.26 in Calm     68% 0.00 in meteobridge W/m2
11:34 43.3 °F 33.4 °F 30.26 in Calm   3.0 mph 68% 0.00 in meteobridge W/m2
11:39 43.5 °F 33.3 °F 30.26 in Calm   2.0 mph 67% 0.00 in meteobridge W/m2
11:44 43.9 °F 33.6 °F 30.26 in Calm   1.0 mph 67% 0.00 in meteobridge W/m2
11:49 44.1 °F 34.2 °F 30.26 in Calm     68% 0.00 in meteobridge W/m2
11:54 44.2 °F 34.0 °F 30.25 in Calm   1.0 mph 67% 0.00 in meteobridge W/m2
11:59 44.4 °F 34.2 °F 30.25 in Calm     67% 0.00 in meteobridge W/m2
12:04 44.8 °F 35.2 °F 30.25 in Calm     69% 0.00 in meteobridge W/m2
12:09 45.0 °F 35.1 °F 30.25 in Calm   1.0 mph 68% 0.00 in meteobridge W/m2
12:14 45.1 °F 36.0 °F 30.25 in Calm     70% 0.00 in meteobridge W/m2
12:19 45.3 °F 35.8 °F 30.25 in Calm     69% 0.00 in meteobridge W/m2
12:24 45.7 °F 36.5 °F 30.24 in Calm     70% 0.00 in meteobridge W/m2
12:29 46.0 °F 37.9 °F 30.24 in Calm     73% 0.00 in meteobridge W/m2
12:34 46.0 °F 36.5 °F 30.24 in Calm     69% 0.00 in meteobridge W/m2
12:39 46.0 °F 36.5 °F 30.24 in Calm   1.0 mph 69% 0.00 in meteobridge W/m2
12:44 46.2 °F 37.4 °F 30.23 in Calm   2.0 mph 71% 0.00 in meteobridge W/m2
12:49 46.8 °F 37.6 °F 30.23 in Calm   1.0 mph 70% 0.00 in meteobridge W/m2
12:54 46.8 °F 37.6 °F 30.23 in Calm     70% 0.00 in meteobridge W/m2
12:59 46.9 °F 38.3 °F 30.23 in Calm     72% 0.00 in meteobridge W/m2
13:04 47.1 °F 38.1 °F 30.23 in Calm     71% 0.00 in meteobridge W/m2
13:09 47.5 °F 38.5 °F 30.22 in Calm     71% 0.00 in meteobridge W/m2
13:14 47.5 °F 37.4 °F 30.22 in Calm   1.0 mph 68% 0.00 in meteobridge W/m2
13:19 47.7 °F 37.6 °F 30.22 in Calm     68% 0.00 in meteobridge W/m2
13:24 47.8 °F 38.1 °F 30.21 in Calm     69% 0.00 in meteobridge W/m2
13:29 48.2 °F 38.8 °F 30.21 in Calm     70% 0.00 in meteobridge W/m2
13:34 48.4 °F 38.3 °F 30.21 in Calm   1.0 mph 68% 0.00 in meteobridge W/m2
13:39 48.6 °F 38.1 °F 30.21 in Calm     67% 0.00 in meteobridge W/m2
13:44 48.7 °F 39.0 °F 30.21 in Calm     69% 0.00 in meteobridge W/m2
13:49 48.7 °F 37.9 °F 30.21 in Calm     66% 0.00 in meteobridge W/m2
13:54 49.1 °F 39.0 °F 30.21 in Calm   2.0 mph 68% 0.00 in meteobridge W/m2
13:59 49.3 °F 38.8 °F 30.20 in Calm   2.0 mph 67% 0.00 in meteobridge W/m2
14:04 49.5 °F 39.0 °F 30.20 in Calm     67% 0.00 in meteobridge W/m2
14:09 49.6 °F 38.7 °F 30.20 in Calm   1.0 mph 66% 0.00 in meteobridge W/m2
14:14 49.6 °F 39.6 °F 30.20 in Calm   2.0 mph 68% 0.00 in meteobridge W/m2
14:19 49.6 °F 39.6 °F 30.20 in Calm     68% 0.00 in meteobridge W/m2
14:24 49.8 °F 40.1 °F 30.20 in Calm     69% 0.00 in meteobridge W/m2
14:29 49.8 °F 38.8 °F 30.20 in Calm     66% 0.00 in meteobridge W/m2
14:34 49.8 °F 39.4 °F 30.20 in Calm     67% 0.00 in meteobridge W/m2
14:39 49.8 °F 38.8 °F 30.20 in Calm     66% 0.00 in meteobridge W/m2
14:44 49.8 °F 39.7 °F 30.20 in Calm   1.0 mph 68% 0.00 in meteobridge W/m2
14:49 49.8 °F 40.5 °F 30.19 in Calm     70% 0.00 in meteobridge W/m2
14:54 49.8 °F 39.7 °F 30.19 in Calm   4.0 mph 68% 0.00 in meteobridge W/m2
14:59 50.0 °F 39.0 °F 30.19 in Calm     66% 0.00 in meteobridge W/m2
15:04 50.2 °F 39.2 °F 30.19 in Calm     66% 0.00 in meteobridge W/m2
15:09 50.4 °F 40.3 °F 30.19 in Calm   2.0 mph 68% 0.00 in meteobridge W/m2
15:14 50.4 °F 40.3 °F 30.19 in Calm     68% 0.00 in meteobridge W/m2
15:19 50.4 °F 40.6 °F 30.19 in Calm     69% 0.00 in meteobridge W/m2
15:24 50.4 °F 39.4 °F 30.19 in Calm   2.0 mph 66% 0.00 in meteobridge W/m2
15:29 50.5 °F 40.8 °F 30.19 in Calm     69% 0.00 in meteobridge W/m2
15:34 50.5 °F 41.2 °F 30.19 in Calm     70% 0.00 in meteobridge W/m2
15:39 50.5 °F 40.8 °F 30.19 in Calm     69% 0.00 in meteobridge W/m2
15:44 50.5 °F 41.2 °F 30.19 in Calm     70% 0.00 in meteobridge W/m2
15:49 50.4 °F 41.4 °F 30.19 in Calm     71% 0.00 in meteobridge W/m2
15:54 50.4 °F 41.4 °F 30.18 in NW 0.9 mph 1.0 mph 71% 0.00 in meteobridge W/m2
15:59 50.2 °F 41.9 °F 30.19 in Calm     73% 0.00 in meteobridge W/m2
16:04 49.8 °F 40.5 °F 30.19 in Calm   3.0 mph 70% 0.00 in meteobridge W/m2
16:09 49.8 °F 40.8 °F 30.19 in Calm     71% 0.00 in meteobridge W/m2
16:14 49.8 °F 40.8 °F 30.19 in Calm   1.0 mph 71% 0.00 in meteobridge W/m2
16:19 49.8 °F 40.8 °F 30.19 in Calm     71% 0.00 in meteobridge W/m2
16:24 49.8 °F 41.5 °F 30.19 in Calm     73% 0.00 in meteobridge W/m2
16:29 49.6 °F 41.0 °F 30.19 in Calm     72% 0.00 in meteobridge W/m2
16:34 49.5 °F 41.2 °F 30.20 in Calm     73% 0.00 in meteobridge W/m2
16:39 49.3 °F 41.4 °F 30.20 in Calm     74% 0.00 in meteobridge W/m2
16:44 48.9 °F 41.4 °F 30.20 in Calm     75% 0.00 in meteobridge W/m2
16:49 48.7 °F 41.2 °F 30.20 in Calm     75% 0.00 in meteobridge W/m2
16:54 48.4 °F 40.8 °F 30.20 in Calm   1.0 mph 75% 0.00 in meteobridge W/m2
16:59 47.8 °F 40.3 °F 30.21 in Calm     75% 0.00 in meteobridge W/m2
17:04 47.7 °F 40.1 °F 30.21 in Calm     75% 0.00 in meteobridge W/m2
17:09 47.5 °F 39.9 °F 30.21 in Calm   2.0 mph 75% 0.00 in meteobridge W/m2
17:14 46.9 °F 39.4 °F 30.21 in Calm     75% 0.00 in meteobridge W/m2
17:19 46.8 °F 39.2 °F 30.21 in Calm     75% 0.00 in meteobridge W/m2
17:24 46.6 °F 39.0 °F 30.21 in Calm     75% 0.00 in meteobridge W/m2
17:29 46.2 °F 38.7 °F 30.21 in Calm     75% 0.00 in meteobridge W/m2
17:34 45.9 °F 38.7 °F 30.21 in Calm     76% 0.00 in meteobridge W/m2
17:39 45.5 °F 38.3 °F 30.21 in Calm     76% 0.00 in meteobridge W/m2
17:44 45.1 °F 37.8 °F 30.21 in Calm     75% 0.00 in meteobridge W/m2
17:49 45.0 °F 37.9 °F 30.21 in Calm     76% 0.00 in meteobridge W/m2
17:54 44.6 °F 37.6 °F 30.21 in Calm     76% 0.00 in meteobridge W/m2
17:59 44.2 °F 37.2 °F 30.22 in Calm     76% 0.00 in meteobridge W/m2
18:04 43.9 °F 36.5 °F 30.22 in Calm     75% 0.00 in meteobridge W/m2
18:09 43.5 °F 35.8 °F 30.22 in Calm     74% 0.00 in meteobridge W/m2
18:14 43.2 °F 35.4 °F 30.22 in Calm     74% 0.00 in meteobridge W/m2
18:19 43.0 °F 35.2 °F 30.22 in Calm     74% 0.00 in meteobridge W/m2
18:24 42.6 °F 34.5 °F 30.22 in Calm     73% 0.00 in meteobridge W/m2
18:29 42.4 °F 34.0 °F 30.22 in Calm     72% 0.00 in meteobridge W/m2
18:34 42.1 °F 33.8 °F 30.22 in Calm     72% 0.00 in meteobridge W/m2
18:39 41.7 °F 33.1 °F 30.22 in Calm     71% 0.00 in meteobridge W/m2
18:44 41.5 °F 32.9 °F 30.22 in Calm     71% 0.00 in meteobridge W/m2
18:49 41.4 °F 32.4 °F 30.22 in Calm     70% 0.00 in meteobridge W/m2
18:54 41.0 °F 31.3 °F 30.22 in Calm     68% 0.00 in meteobridge W/m2
18:59 40.8 °F 31.5 °F 30.23 in Calm     69% 0.00 in meteobridge W/m2
19:04 40.5 °F 30.7 °F 30.23 in Calm     68% 0.00 in meteobridge W/m2
19:09 40.3 °F 30.6 °F 30.23 in Calm     68% 0.00 in meteobridge W/m2
19:14 40.1 °F 30.4 °F 30.23 in Calm     68% 0.00 in meteobridge W/m2
19:19 39.7 °F 30.0 °F 30.23 in Calm     68% 0.00 in meteobridge W/m2
19:24 39.6 °F 29.8 °F 30.24 in Calm     68% 0.00 in meteobridge W/m2
19:29 39.4 °F 29.3 °F 30.24 in Calm     67% 0.00 in meteobridge W/m2
19:34 39.0 °F 28.9 °F 30.24 in Calm     67% 0.00 in meteobridge W/m2
19:39 38.7 °F 28.6 °F 30.24 in Calm     67% 0.00 in meteobridge W/m2
19:44 38.5 °F 28.4 °F 30.24 in Calm     67% 0.00 in meteobridge W/m2
19:49 38.1 °F 27.9 °F 30.24 in Calm     66% 0.00 in meteobridge W/m2
19:54 37.9 °F 27.7 °F 30.24 in Calm     66% 0.00 in meteobridge W/m2
19:59 37.8 °F 27.5 °F 30.24 in Calm     66% 0.00 in meteobridge W/m2
20:04 37.6 °F 27.0 °F 30.25 in Calm     65% 0.00 in meteobridge W/m2
20:09 37.2 °F 26.6 °F 30.25 in Calm     65% 0.00 in meteobridge W/m2
20:14 37.0 °F 26.4 °F 30.25 in Calm     65% 0.00 in meteobridge W/m2
20:19 37.0 °F 26.4 °F 30.25 in Calm     65% 0.00 in meteobridge W/m2
20:24 36.9 °F 26.2 °F 30.25 in Calm     65% 0.00 in meteobridge W/m2
20:29 36.7 °F 26.1 °F 30.25 in Calm     65% 0.00 in meteobridge W/m2
20:34 36.3 °F 25.7 °F 30.25 in Calm     65% 0.00 in meteobridge W/m2
20:39 36.1 °F 25.5 °F 30.25 in Calm     65% 0.00 in meteobridge W/m2
20:44 36.0 °F 25.3 °F 30.25 in Calm     65% 0.00 in meteobridge W/m2
20:49 35.8 °F 25.2 °F 30.26 in Calm     65% 0.00 in meteobridge W/m2
20:54 35.6 °F 24.6 °F 30.26 in Calm     64% 0.00 in meteobridge W/m2
20:59 35.4 °F 24.4 °F 30.26 in Calm     64% 0.00 in meteobridge W/m2
21:04 35.2 °F 24.3 °F 30.26 in Calm     64% 0.00 in meteobridge W/m2
21:09 35.1 °F 23.7 °F 30.26 in Calm     63% 0.00 in meteobridge W/m2
21:14 35.1 °F 23.7 °F 30.26 in Calm     63% 0.00 in meteobridge W/m2
21:19 34.9 °F 23.5 °F 30.26 in Calm     63% 0.00 in meteobridge W/m2
21:23 34.9 °F 23.5 °F 30.26 in Calm     63% 0.00 in meteobridge W/m2
21:29 34.5 °F 23.2 °F 30.26 in Calm     63% 0.00 in meteobridge W/m2
21:34 34.3 °F 23.0 °F 30.26 in Calm     63% 0.00 in meteobridge W/m2
21:39 34.3 °F 22.6 °F 30.26 in Calm     62% 0.00 in meteobridge W/m2
21:44 34.2 °F 22.5 °F 30.26 in Calm     62% 0.00 in meteobridge W/m2
21:49 34.2 °F 22.5 °F 30.26 in Calm     62% 0.00 in meteobridge W/m2
21:54 34.0 °F 22.3 °F 30.26 in Calm     62% 0.00 in meteobridge W/m2
21:59 34.0 °F 21.9 °F 30.26 in Calm     61% 0.00 in meteobridge W/m2
22:04 34.0 °F 21.9 °F 30.26 in Calm     61% 0.00 in meteobridge W/m2
22:09 34.0 °F 21.9 °F 30.26 in Calm     61% 0.00 in meteobridge W/m2
22:14 33.8 °F 21.7 °F 30.26 in Calm     61% 0.00 in meteobridge W/m2
22:19 33.8 °F 21.4 °F 30.26 in Calm     60% 0.00 in meteobridge W/m2
22:24 33.8 °F 21.4 °F 30.26 in Calm     60% 0.00 in meteobridge W/m2
22:29 33.8 °F 21.4 °F 30.26 in Calm     60% 0.00 in meteobridge W/m2
22:34 33.8 °F 21.4 °F 30.26 in Calm     60% 0.00 in meteobridge W/m2
22:39 33.6 °F 21.2 °F 30.26 in Calm     60% 0.00 in meteobridge W/m2
22:44 33.4 °F 21.0 °F 30.26 in Calm     60% 0.00 in meteobridge W/m2
22:49 33.3 °F 20.8 °F 30.27 in Calm     60% 0.00 in meteobridge W/m2
22:54 33.1 °F 20.7 °F 30.26 in Calm     60% 0.00 in meteobridge W/m2
22:59 32.9 °F 20.8 °F 30.26 in Calm     61% 0.00 in meteobridge W/m2
23:04 32.7 °F 20.3 °F 30.26 in Calm     60% 0.00 in meteobridge W/m2
23:09 32.7 °F 20.3 °F 30.26 in Calm     60% 0.00 in meteobridge W/m2
23:14 32.5 °F 20.1 °F 30.27 in Calm     60% 0.00 in meteobridge W/m2
23:19 32.5 °F 20.1 °F 30.27 in Calm     60% 0.00 in meteobridge W/m2
23:24 32.5 °F 20.1 °F 30.27 in Calm     60% 0.00 in meteobridge W/m2
23:29 32.5 °F 20.1 °F 30.27 in Calm     60% 0.00 in meteobridge W/m2
23:34 32.4 °F 19.9 °F 30.27 in Calm     60% 0.00 in meteobridge W/m2
23:39 32.2 °F 19.9 °F 30.27 in Calm     60% 0.00 in meteobridge W/m2
23:44 32.0 °F 19.8 °F 30.27 in Calm     60% 0.00 in meteobridge W/m2
23:49 31.8 °F 19.6 °F 30.27 in Calm     60% 0.00 in meteobridge W/m2
23:54 31.8 °F 19.6 °F 30.27 in Calm     60% 0.00 in meteobridge W/m2
23:59 31.6 °F 19.8 °F 30.27 in Calm     61% 0.00 in meteobridge W/m2
EllijayWeather
Compliments of Weather Underground - 2.5 mb